sensor_id;sensor_type;location;lat;lon;timestamp;P1;durP1;ratioP1;P2;durP2;ratioP2
78148;SDS011;67396;42.664;23.382;2023-02-01T00:03:00;3.60;;;3.03;;
78148;SDS011;67396;42.664;23.382;2023-02-01T00:07:54;5.45;;;3.00;;
78148;SDS011;67396;42.664;23.382;2023-02-01T00:12:45;4.65;;;2.35;;
78148;SDS011;67396;42.664;23.382;2023-02-01T00:17:36;7.85;;;4.20;;
78148;SDS011;67396;42.664;23.382;2023-02-01T00:22:28;4.70;;;3.70;;
78148;SDS011;67396;42.664;23.382;2023-02-01T00:27:25;3.22;;;2.45;;
78148;SDS011;67396;42.664;23.382;2023-02-01T00:30:02;6.78;;;4.03;;
78148;SDS011;67396;42.664;23.382;2023-02-01T00:32:54;4.22;;;3.13;;
78148;SDS011;67396;42.664;23.382;2023-02-01T00:35:22;8.65;;;3.85;;
78148;SDS011;67396;42.664;23.382;2023-02-01T00:40:19;5.40;;;3.45;;
78148;SDS011;67396;42.664;23.382;2023-02-01T00:45:09;6.43;;;3.50;;
78148;SDS011;67396;42.664;23.382;2023-02-01T00:50:06;5.25;;;2.85;;
78148;SDS011;67396;42.664;23.382;2023-02-01T00:54:57;4.22;;;2.63;;
78148;SDS011;67396;42.664;23.382;2023-02-01T00:57:22;5.93;;;2.90;;
78148;SDS011;67396;42.664;23.382;2023-02-01T01:02:13;4.88;;;2.70;;
78148;SDS011;67396;42.664;23.382;2023-02-01T01:07:04;4.20;;;2.22;;
78148;SDS011;67396;42.664;23.382;2023-02-01T01:09:30;3.30;;;2.47;;
78148;SDS011;67396;42.664;23.382;2023-02-01T01:14:20;3.50;;;2.90;;
78148;SDS011;67396;42.664;23.382;2023-02-01T01:19:11;2.97;;;2.47;;
78148;SDS011;67396;42.664;23.382;2023-02-01T01:24:04;6.20;;;2.63;;
78148;SDS011;67396;42.664;23.382;2023-02-01T01:28:55;3.13;;;2.28;;
78148;SDS011;67396;42.664;23.382;2023-02-01T01:31:23;4.72;;;3.15;;
78148;SDS011;67396;42.664;23.382;2023-02-01T01:33:52;4.97;;;3.38;;
78148;SDS011;67396;42.664;23.382;2023-02-01T01:36:19;4.18;;;3.38;;
78148;SDS011;67396;42.664;23.382;2023-02-01T01:41:18;5.22;;;2.78;;
78148;SDS011;67396;42.664;23.382;2023-02-01T01:43:55;4.68;;;2.45;;
78148;SDS011;67396;42.664;23.382;2023-02-01T01:46:35;3.30;;;2.47;;
78148;SDS011;67396;42.664;23.382;2023-02-01T01:51:53;3.42;;;2.05;;
78148;SDS011;67396;42.664;23.382;2023-02-01T01:54:29;5.82;;;2.60;;
78148;SDS011;67396;42.664;23.382;2023-02-01T01:57:02;3.63;;;2.42;;
78148;SDS011;67396;42.664;23.382;2023-02-01T01:59:31;3.30;;;2.72;;
78148;SDS011;67396;42.664;23.382;2023-02-01T02:02:00;2.90;;;2.05;;
78148;SDS011;67396;42.664;23.382;2023-02-01T02:06:54;2.60;;;2.03;;
78148;SDS011;67396;42.664;23.382;2023-02-01T02:09:25;3.60;;;2.63;;
78148;SDS011;67396;42.664;23.382;2023-02-01T02:14:17;4.03;;;2.28;;
78148;SDS011;67396;42.664;23.382;2023-02-01T02:21:52;4.90;;;2.35;;
78148;SDS011;67396;42.664;23.382;2023-02-01T02:44:22;2.78;;;2.20;;
78148;SDS011;67396;42.664;23.382;2023-02-01T02:47:39;2.80;;;2.03;;
78148;SDS011;67396;42.664;23.382;2023-02-01T02:50:24;3.80;;;2.42;;
78148;SDS011;67396;42.664;23.382;2023-02-01T02:53:17;3.25;;;2.20;;
78148;SDS011;67396;42.664;23.382;2023-02-01T02:56:05;2.58;;;2.15;;
78148;SDS011;67396;42.664;23.382;2023-02-01T02:58:51;3.58;;;2.13;;
78148;SDS011;67396;42.664;23.382;2023-02-01T03:01:38;3.70;;;2.05;;
78148;SDS011;67396;42.664;23.382;2023-02-01T03:06:51;3.65;;;2.33;;
78148;SDS011;67396;42.664;23.382;2023-02-01T03:09:38;3.30;;;2.22;;
78148;SDS011;67396;42.664;23.382;2023-02-01T03:12:07;2.33;;;1.73;;
78148;SDS011;67396;42.664;23.382;2023-02-01T03:15:05;3.42;;;1.95;;
78148;SDS011;67396;42.664;23.382;2023-02-01T03:17:39;2.40;;;1.45;;
78148;SDS011;67396;42.664;23.382;2023-02-01T03:20:09;2.88;;;1.85;;
78148;SDS011;67396;42.664;23.382;2023-02-01T03:22:38;3.33;;;1.30;;
78148;SDS011;67396;42.664;23.382;2023-02-01T03:25:13;2.75;;;1.90;;
78148;SDS011;67396;42.664;23.382;2023-02-01T03:30:40;6.43;;;2.15;;
78148;SDS011;67396;42.664;23.382;2023-02-01T03:33:13;3.88;;;1.80;;
78148;SDS011;67396;42.664;23.382;2023-02-01T03:38:46;3.38;;;1.52;;
78148;SDS011;67396;42.664;23.382;2023-02-01T03:41:20;3.90;;;1.50;;
78148;SDS011;67396;42.664;23.382;2023-02-01T03:46:33;2.35;;;1.65;;
78148;SDS011;67396;42.664;23.382;2023-02-01T03:49:08;2.97;;;1.73;;
78148;SDS011;67396;42.664;23.382;2023-02-01T03:51:38;3.38;;;1.52;;
78148;SDS011;67396;42.664;23.382;2023-02-01T03:54:06;2.45;;;1.75;;
78148;SDS011;67396;42.664;23.382;2023-02-01T03:56:36;1.83;;;1.60;;
78148;SDS011;67396;42.664;23.382;2023-02-01T03:59:03;5.78;;;1.60;;
78148;SDS011;67396;42.664;23.382;2023-02-01T04:03:55;3.47;;;1.65;;
78148;SDS011;67396;42.664;23.382;2023-02-01T04:06:22;5.15;;;2.15;;
78148;SDS011;67396;42.664;23.382;2023-02-01T04:08:49;3.47;;;1.90;;
78148;SDS011;67396;42.664;23.382;2023-02-01T04:16:05;2.05;;;1.58;;
78148;SDS011;67396;42.664;23.382;2023-02-01T04:20:56;2.85;;;2.08;;
78148;SDS011;67396;42.664;23.382;2023-02-01T04:23:23;1.67;;;1.27;;
78148;SDS011;67396;42.664;23.382;2023-02-01T04:28:14;2.83;;;1.97;;
78148;SDS011;67396;42.664;23.382;2023-02-01T04:33:05;2.10;;;1.80;;
78148;SDS011;67396;42.664;23.382;2023-02-01T04:35:30;2.58;;;1.67;;
78148;SDS011;67396;42.664;23.382;2023-02-01T04:40:21;6.13;;;2.57;;
78148;SDS011;67396;42.664;23.382;2023-02-01T04:42:47;6.00;;;2.50;;
78148;SDS011;67396;42.664;23.382;2023-02-01T04:47:38;7.97;;;2.60;;
78148;SDS011;67396;42.664;23.382;2023-02-01T04:52:30;2.60;;;1.77;;
78148;SDS011;67396;42.664;23.382;2023-02-01T04:57:24;4.50;;;2.00;;
78148;SDS011;67396;42.664;23.382;2023-02-01T05:02:15;3.75;;;2.63;;
78148;SDS011;67396;42.664;23.382;2023-02-01T05:07:05;3.80;;;1.40;;
78148;SDS011;67396;42.664;23.382;2023-02-01T05:09:31;5.18;;;2.45;;
78148;SDS011;67396;42.664;23.382;2023-02-01T05:14:40;3.63;;;2.10;;
78148;SDS011;67396;42.664;23.382;2023-02-01T05:19:31;3.47;;;1.80;;
78148;SDS011;67396;42.664;23.382;2023-02-01T05:24:22;6.78;;;2.90;;
78148;SDS011;67396;42.664;23.382;2023-02-01T05:29:13;7.95;;;2.97;;
78148;SDS011;67396;42.664;23.382;2023-02-01T05:31:39;3.83;;;2.63;;
78148;SDS011;67396;42.664;23.382;2023-02-01T05:34:05;2.17;;;1.30;;
78148;SDS011;67396;42.664;23.382;2023-02-01T05:38:56;3.92;;;3.22;;
78148;SDS011;67396;42.664;23.382;2023-02-01T05:41:22;3.67;;;2.80;;
78148;SDS011;67396;42.664;23.382;2023-02-01T05:46:13;4.03;;;3.20;;
78148;SDS011;67396;42.664;23.382;2023-02-01T05:48:39;5.22;;;2.72;;
78148;SDS011;67396;42.664;23.382;2023-02-01T05:51:05;3.80;;;3.15;;
78148;SDS011;67396;42.664;23.382;2023-02-01T05:53:30;6.00;;;2.67;;
78148;SDS011;67396;42.664;23.382;2023-02-01T05:58:21;5.40;;;2.87;;
78148;SDS011;67396;42.664;23.382;2023-02-01T06:00:46;5.75;;;2.75;;
78148;SDS011;67396;42.664;23.382;2023-02-01T06:05:55;4.53;;;3.33;;
78148;SDS011;67396;42.664;23.382;2023-02-01T06:10:50;7.43;;;2.38;;
78148;SDS011;67396;42.664;23.382;2023-02-01T06:13:16;4.18;;;2.95;;
78148;SDS011;67396;42.664;23.382;2023-02-01T06:18:08;1.83;;;1.40;;
78148;SDS011;67396;42.664;23.382;2023-02-01T06:20:34;5.35;;;2.83;;
78148;SDS011;67396;42.664;23.382;2023-02-01T06:25:25;6.57;;;2.80;;
78148;SDS011;67396;42.664;23.382;2023-02-01T06:30:16;4.25;;;2.72;;
78148;SDS011;67396;42.664;23.382;2023-02-01T06:35:07;5.75;;;2.63;;
78148;SDS011;67396;42.664;23.382;2023-02-01T06:37:36;2.63;;;2.03;;
78148;SDS011;67396;42.664;23.382;2023-02-01T06:40:02;3.95;;;2.10;;
78148;SDS011;67396;42.664;23.382;2023-02-01T06:42:28;3.88;;;2.40;;
78148;SDS011;67396;42.664;23.382;2023-02-01T06:44:53;6.13;;;2.05;;
78148;SDS011;67396;42.664;23.382;2023-02-01T06:47:19;3.47;;;2.08;;
78148;SDS011;67396;42.664;23.382;2023-02-01T06:49:44;3.22;;;1.90;;
78148;SDS011;67396;42.664;23.382;2023-02-01T06:52:10;3.67;;;2.55;;
78148;SDS011;67396;42.664;23.382;2023-02-01T06:57:02;2.28;;;1.52;;
78148;SDS011;67396;42.664;23.382;2023-02-01T06:59:28;3.85;;;2.60;;
78148;SDS011;67396;42.664;23.382;2023-02-01T07:01:56;4.63;;;2.30;;
78148;SDS011;67396;42.664;23.382;2023-02-01T07:04:21;5.00;;;2.85;;
78148;SDS011;67396;42.664;23.382;2023-02-01T07:06:47;6.50;;;2.40;;
78148;SDS011;67396;42.664;23.382;2023-02-01T07:09:12;7.00;;;2.00;;
78148;SDS011;67396;42.664;23.382;2023-02-01T07:11:38;4.68;;;2.45;;
78148;SDS011;67396;42.664;23.382;2023-02-01T07:14:08;8.23;;;2.58;;
78148;SDS011;67396;42.664;23.382;2023-02-01T07:16:34;5.53;;;2.35;;
78148;SDS011;67396;42.664;23.382;2023-02-01T07:19:00;5.00;;;2.78;;
78148;SDS011;67396;42.664;23.382;2023-02-01T07:21:26;4.97;;;2.65;;
78148;SDS011;67396;42.664;23.382;2023-02-01T07:23:52;4.38;;;2.28;;
78148;SDS011;67396;42.664;23.382;2023-02-01T07:26:18;4.43;;;1.85;;
78148;SDS011;67396;42.664;23.382;2023-02-01T07:31:18;4.80;;;2.05;;
78148;SDS011;67396;42.664;23.382;2023-02-01T07:33:46;5.93;;;2.17;;
78148;SDS011;67396;42.664;23.382;2023-02-01T07:36:17;4.57;;;1.75;;
78148;SDS011;67396;42.664;23.382;2023-02-01T07:38:45;1.38;;;1.27;;
78148;SDS011;67396;42.664;23.382;2023-02-01T07:41:16;7.43;;;2.28;;
78148;SDS011;67396;42.664;23.382;2023-02-01T07:43:42;5.93;;;1.95;;
78148;SDS011;67396;42.664;23.382;2023-02-01T07:46:08;7.03;;;2.70;;
78148;SDS011;67396;42.664;23.382;2023-02-01T07:48:35;7.72;;;3.05;;
78148;SDS011;67396;42.664;23.382;2023-02-01T07:51:13;7.45;;;2.80;;
78148;SDS011;67396;42.664;23.382;2023-02-01T07:53:40;4.68;;;1.60;;
78148;SDS011;67396;42.664;23.382;2023-02-01T07:56:11;4.20;;;1.45;;
78148;SDS011;67396;42.664;23.382;2023-02-01T07:58:38;6.63;;;2.20;;
78148;SDS011;67396;42.664;23.382;2023-02-01T08:01:03;7.03;;;2.40;;
78148;SDS011;67396;42.664;23.382;2023-02-01T08:03:45;9.60;;;2.05;;
78148;SDS011;67396;42.664;23.382;2023-02-01T08:06:14;4.20;;;1.73;;
78148;SDS011;67396;42.664;23.382;2023-02-01T08:08:42;3.05;;;1.67;;
78148;SDS011;67396;42.664;23.382;2023-02-01T08:11:10;3.40;;;2.30;;
78148;SDS011;67396;42.664;23.382;2023-02-01T08:13:35;5.68;;;2.30;;
78148;SDS011;67396;42.664;23.382;2023-02-01T08:16:10;5.10;;;2.55;;
78148;SDS011;67396;42.664;23.382;2023-02-01T08:18:53;2.15;;;1.60;;
78148;SDS011;67396;42.664;23.382;2023-02-01T08:21:21;2.42;;;1.75;;
78148;SDS011;67396;42.664;23.382;2023-02-01T08:23:49;6.15;;;2.63;;
78148;SDS011;67396;42.664;23.382;2023-02-01T08:26:18;7.10;;;1.92;;
78148;SDS011;67396;42.664;23.382;2023-02-01T08:28:51;1.90;;;1.52;;
78148;SDS011;67396;42.664;23.382;2023-02-01T08:31:27;2.42;;;1.67;;
78148;SDS011;67396;42.664;23.382;2023-02-01T08:34:13;1.30;;;1.17;;
78148;SDS011;67396;42.664;23.382;2023-02-01T08:36:38;2.72;;;1.08;;
78148;SDS011;67396;42.664;23.382;2023-02-01T08:39:05;2.75;;;2.13;;
78148;SDS011;67396;42.664;23.382;2023-02-01T08:41:33;3.08;;;2.13;;
78148;SDS011;67396;42.664;23.382;2023-02-01T08:44:02;3.47;;;1.40;;
78148;SDS011;67396;42.664;23.382;2023-02-01T08:46:33;1.92;;;1.42;;
78148;SDS011;67396;42.664;23.382;2023-02-01T08:49:08;2.53;;;1.08;;
78148;SDS011;67396;42.664;23.382;2023-02-01T08:51:36;1.20;;;1.10;;
78148;SDS011;67396;42.664;23.382;2023-02-01T08:54:15;4.68;;;1.60;;
78148;SDS011;67396;42.664;23.382;2023-02-01T08:56:45;4.45;;;1.40;;
78148;SDS011;67396;42.664;23.382;2023-02-01T08:59:14;3.10;;;1.33;;
78148;SDS011;67396;42.664;23.382;2023-02-01T09:01:47;6.78;;;2.28;;
78148;SDS011;67396;42.664;23.382;2023-02-01T09:04:13;1.67;;;1.23;;
78148;SDS011;67396;42.664;23.382;2023-02-01T09:06:41;2.33;;;1.33;;
78148;SDS011;67396;42.664;23.382;2023-02-01T09:09:09;3.05;;;1.08;;
78148;SDS011;67396;42.664;23.382;2023-02-01T09:11:35;2.40;;;1.85;;
78148;SDS011;67396;42.664;23.382;2023-02-01T09:14:00;6.93;;;2.33;;
78148;SDS011;67396;42.664;23.382;2023-02-01T09:16:29;1.27;;;1.10;;
78148;SDS011;67396;42.664;23.382;2023-02-01T09:18:54;6.60;;;1.70;;
78148;SDS011;67396;42.664;23.382;2023-02-01T09:21:20;5.63;;;1.73;;
78148;SDS011;67396;42.664;23.382;2023-02-01T09:23:46;2.30;;;1.33;;
78148;SDS011;67396;42.664;23.382;2023-02-01T09:26:13;4.30;;;1.80;;
78148;SDS011;67396;42.664;23.382;2023-02-01T09:28:39;2.65;;;1.52;;
78148;SDS011;67396;42.664;23.382;2023-02-01T09:31:04;2.95;;;2.08;;
78148;SDS011;67396;42.664;23.382;2023-02-01T09:36:51;1.95;;;1.20;;
78148;SDS011;67396;42.664;23.382;2023-02-01T09:39:16;5.10;;;1.17;;
78148;SDS011;67396;42.664;23.382;2023-02-01T09:44:48;1.92;;;1.20;;
78148;SDS011;67396;42.664;23.382;2023-02-01T09:47:43;5.03;;;1.75;;
78148;SDS011;67396;42.664;23.382;2023-02-01T09:50:21;2.67;;;1.65;;
78148;SDS011;67396;42.664;23.382;2023-02-01T09:55:40;5.13;;;2.25;;
78148;SDS011;67396;42.664;23.382;2023-02-01T10:00:46;2.75;;;1.25;;
78148;SDS011;67396;42.664;23.382;2023-02-01T10:03:34;4.28;;;1.63;;
78148;SDS011;67396;42.664;23.382;2023-02-01T10:22:54;3.05;;;1.50;;
78148;SDS011;67396;42.664;23.382;2023-02-01T10:28:18;3.15;;;1.55;;
78148;SDS011;67396;42.664;23.382;2023-02-01T10:30:47;2.78;;;1.35;;
78148;SDS011;67396;42.664;23.382;2023-02-01T10:36:20;3.83;;;1.52;;
78148;SDS011;67396;42.664;23.382;2023-02-01T10:38:48;6.55;;;1.17;;
78148;SDS011;67396;42.664;23.382;2023-02-01T10:43:41;3.08;;;1.25;;
78148;SDS011;67396;42.664;23.382;2023-02-01T10:46:20;5.32;;;2.30;;
78148;SDS011;67396;42.664;23.382;2023-02-01T10:49:03;4.95;;;1.80;;
78148;SDS011;67396;42.664;23.382;2023-02-01T10:51:43;7.72;;;2.65;;
78148;SDS011;67396;42.664;23.382;2023-02-01T10:54:36;8.70;;;2.40;;
78148;SDS011;67396;42.664;23.382;2023-02-01T10:59:53;4.30;;;1.30;;
78148;SDS011;67396;42.664;23.382;2023-02-01T11:02:26;4.38;;;1.30;;
78148;SDS011;67396;42.664;23.382;2023-02-01T11:04:58;5.30;;;2.03;;
78148;SDS011;67396;42.664;23.382;2023-02-01T11:07:37;5.00;;;1.70;;
78148;SDS011;67396;42.664;23.382;2023-02-01T11:10:05;3.00;;;1.83;;
78148;SDS011;67396;42.664;23.382;2023-02-01T11:12:35;8.18;;;4.07;;
78148;SDS011;67396;42.664;23.382;2023-02-01T11:17:40;2.53;;;1.60;;
78148;SDS011;67396;42.664;23.382;2023-02-01T11:20:13;8.43;;;1.60;;
78148;SDS011;67396;42.664;23.382;2023-02-01T11:22:39;4.03;;;1.60;;
78148;SDS011;67396;42.664;23.382;2023-02-01T11:25:13;4.03;;;1.30;;
78148;SDS011;67396;42.664;23.382;2023-02-01T11:27:41;2.40;;;1.42;;
78148;SDS011;67396;42.664;23.382;2023-02-01T11:30:38;1.67;;;1.33;;
78148;SDS011;67396;42.664;23.382;2023-02-01T11:33:12;2.88;;;1.02;;
78148;SDS011;67396;42.664;23.382;2023-02-01T11:35:41;3.22;;;1.77;;
78148;SDS011;67396;42.664;23.382;2023-02-01T11:40:46;2.90;;;1.25;;
78148;SDS011;67396;42.664;23.382;2023-02-01T11:43:17;3.33;;;1.30;;
78148;SDS011;67396;42.664;23.382;2023-02-01T11:45:53;2.92;;;0.95;;
78148;SDS011;67396;42.664;23.382;2023-02-01T11:48:26;3.53;;;1.27;;
78148;SDS011;67396;42.664;23.382;2023-02-01T11:51:13;2.20;;;1.00;;
78148;SDS011;67396;42.664;23.382;2023-02-01T12:07:15;5.75;;;1.73;;
78148;SDS011;67396;42.664;23.382;2023-02-01T12:13:00;0.75;;;0.50;;
78148;SDS011;67396;42.664;23.382;2023-02-01T12:18:58;0.47;;;0.47;;
78148;SDS011;67396;42.664;23.382;2023-02-01T12:21:34;1.27;;;0.68;;
78148;SDS011;67396;42.664;23.382;2023-02-01T12:45:47;2.88;;;1.88;;
78148;SDS011;67396;42.664;23.382;2023-02-01T12:51:12;2.08;;;1.15;;
78148;SDS011;67396;42.664;23.382;2023-02-01T12:53:46;3.70;;;1.80;;
78148;SDS011;67396;42.664;23.382;2023-02-01T12:56:30;1.80;;;1.20;;
78148;SDS011;67396;42.664;23.382;2023-02-01T12:59:13;2.78;;;1.20;;
78148;SDS011;67396;42.664;23.382;2023-02-01T13:01:56;1.17;;;0.70;;
78148;SDS011;67396;42.664;23.382;2023-02-01T13:09:44;10.20;;;2.53;;
78148;SDS011;67396;42.664;23.382;2023-02-01T13:12:22;2.10;;;1.08;;
78148;SDS011;67396;42.664;23.382;2023-02-01T13:14:58;2.50;;;1.05;;
78148;SDS011;67396;42.664;23.382;2023-02-01T13:17:31;1.67;;;0.85;;
78148;SDS011;67396;42.664;23.382;2023-02-01T13:22:34;1.50;;;1.02;;
78148;SDS011;67396;42.664;23.382;2023-02-01T13:25:13;2.33;;;1.00;;
78148;SDS011;67396;42.664;23.382;2023-02-01T13:27:43;1.80;;;1.30;;
78148;SDS011;67396;42.664;23.382;2023-02-01T13:40:53;4.80;;;1.52;;
78148;SDS011;67396;42.664;23.382;2023-02-01T13:43:36;2.78;;;1.27;;
78148;SDS011;67396;42.664;23.382;2023-02-01T13:46:04;1.58;;;0.98;;
78148;SDS011;67396;42.664;23.382;2023-02-01T13:51:04;1.92;;;1.02;;
78148;SDS011;67396;42.664;23.382;2023-02-01T13:53:32;2.58;;;1.00;;
78148;SDS011;67396;42.664;23.382;2023-02-01T13:56:20;1.55;;;1.00;;
78148;SDS011;67396;42.664;23.382;2023-02-01T13:58:49;1.83;;;0.98;;
78148;SDS011;67396;42.664;23.382;2023-02-01T14:03:52;3.28;;;1.90;;
78148;SDS011;67396;42.664;23.382;2023-02-01T14:06:38;3.08;;;1.30;;
78148;SDS011;67396;42.664;23.382;2023-02-01T14:11:36;3.45;;;1.40;;
78148;SDS011;67396;42.664;23.382;2023-02-01T14:17:28;3.35;;;2.00;;
78148;SDS011;67396;42.664;23.382;2023-02-01T14:19:35;1.90;;;1.30;;
78148;SDS011;67396;42.664;23.382;2023-02-01T14:24:49;2.15;;;1.20;;
78148;SDS011;67396;42.664;23.382;2023-02-01T14:27:24;2.67;;;1.40;;
78148;SDS011;67396;42.664;23.382;2023-02-01T14:29:58;2.70;;;1.58;;
78148;SDS011;67396;42.664;23.382;2023-02-01T14:34:56;2.10;;;1.30;;
78148;SDS011;67396;42.664;23.382;2023-02-01T14:37:29;5.03;;;1.70;;
78148;SDS011;67396;42.664;23.382;2023-02-01T14:40:00;1.63;;;0.93;;
78148;SDS011;67396;42.664;23.382;2023-02-01T15:01:20;1.98;;;1.27;;
78148;SDS011;67396;42.664;23.382;2023-02-01T15:04:06;3.45;;;1.70;;
78148;SDS011;67396;42.664;23.382;2023-02-01T15:06:40;3.50;;;1.08;;
78148;SDS011;67396;42.664;23.382;2023-02-01T15:14:31;2.33;;;1.20;;
78148;SDS011;67396;42.664;23.382;2023-02-01T15:16:58;2.75;;;1.23;;
78148;SDS011;67396;42.664;23.382;2023-02-01T15:19:26;3.25;;;1.95;;
78148;SDS011;67396;42.664;23.382;2023-02-01T15:21:54;3.15;;;1.02;;
78148;SDS011;67396;42.664;23.382;2023-02-01T15:24:25;2.97;;;1.33;;
78148;SDS011;67396;42.664;23.382;2023-02-01T15:26:55;5.75;;;1.92;;
78148;SDS011;67396;42.664;23.382;2023-02-01T15:29:27;2.72;;;1.40;;
78148;SDS011;67396;42.664;23.382;2023-02-01T15:31:57;3.83;;;1.13;;
78148;SDS011;67396;42.664;23.382;2023-02-01T15:34:23;6.30;;;2.05;;
78148;SDS011;67396;42.664;23.382;2023-02-01T15:36:48;1.98;;;1.33;;
78148;SDS011;67396;42.664;23.382;2023-02-01T15:39:21;4.28;;;1.65;;
78148;SDS011;67396;42.664;23.382;2023-02-01T15:41:59;2.30;;;1.42;;
78148;SDS011;67396;42.664;23.382;2023-02-01T15:44:34;4.70;;;0.95;;
78148;SDS011;67396;42.664;23.382;2023-02-01T15:47:07;3.67;;;1.38;;
78148;SDS011;67396;42.664;23.382;2023-02-01T15:49:49;2.13;;;1.35;;
78148;SDS011;67396;42.664;23.382;2023-02-01T15:52:24;2.20;;;1.45;;
78148;SDS011;67396;42.664;23.382;2023-02-01T15:54:56;4.70;;;1.73;;
78148;SDS011;67396;42.664;23.382;2023-02-01T15:57:29;4.15;;;1.70;;
78148;SDS011;67396;42.664;23.382;2023-02-01T15:59:59;4.20;;;1.63;;
78148;SDS011;67396;42.664;23.382;2023-02-01T16:02:35;3.08;;;1.45;;
78148;SDS011;67396;42.664;23.382;2023-02-01T16:08:04;2.92;;;1.60;;
78148;SDS011;67396;42.664;23.382;2023-02-01T16:10:38;3.85;;;1.90;;
78148;SDS011;67396;42.664;23.382;2023-02-01T16:13:05;4.75;;;2.58;;
78148;SDS011;67396;42.664;23.382;2023-02-01T16:15:32;4.93;;;1.80;;
78148;SDS011;67396;42.664;23.382;2023-02-01T16:17:57;2.30;;;1.23;;
78148;SDS011;67396;42.664;23.382;2023-02-01T16:20:23;2.33;;;1.05;;
78148;SDS011;67396;42.664;23.382;2023-02-01T16:22:48;3.72;;;1.55;;
78148;SDS011;67396;42.664;23.382;2023-02-01T16:25:13;2.75;;;1.65;;
78148;SDS011;67396;42.664;23.382;2023-02-01T16:27:39;3.50;;;2.00;;
78148;SDS011;67396;42.664;23.382;2023-02-01T16:30:04;4.78;;;1.98;;
78148;SDS011;67396;42.664;23.382;2023-02-01T16:32:30;3.65;;;1.30;;
78148;SDS011;67396;42.664;23.382;2023-02-01T16:34:56;1.85;;;1.25;;
78148;SDS011;67396;42.664;23.382;2023-02-01T16:37:23;2.55;;;1.40;;
78148;SDS011;67396;42.664;23.382;2023-02-01T16:39:49;2.63;;;1.40;;
78148;SDS011;67396;42.664;23.382;2023-02-01T16:42:15;4.47;;;1.83;;
78148;SDS011;67396;42.664;23.382;2023-02-01T16:44:44;0.85;;;0.68;;
78148;SDS011;67396;42.664;23.382;2023-02-01T16:47:16;1.90;;;1.27;;
78148;SDS011;67396;42.664;23.382;2023-02-01T16:49:44;4.32;;;1.30;;
78148;SDS011;67396;42.664;23.382;2023-02-01T16:52:17;5.35;;;2.47;;
78148;SDS011;67396;42.664;23.382;2023-02-01T16:54:44;4.20;;;1.73;;
78148;SDS011;67396;42.664;23.382;2023-02-01T16:57:11;6.70;;;1.83;;
78148;SDS011;67396;42.664;23.382;2023-02-01T16:59:38;3.33;;;1.33;;
78148;SDS011;67396;42.664;23.382;2023-02-01T17:02:04;3.10;;;1.13;;
78148;SDS011;67396;42.664;23.382;2023-02-01T17:04:29;3.10;;;1.30;;
78148;SDS011;67396;42.664;23.382;2023-02-01T17:06:55;4.47;;;1.70;;
78148;SDS011;67396;42.664;23.382;2023-02-01T17:09:27;1.75;;;1.20;;
78148;SDS011;67396;42.664;23.382;2023-02-01T17:11:53;3.95;;;1.60;;
78148;SDS011;67396;42.664;23.382;2023-02-01T17:14:19;2.28;;;1.30;;
78148;SDS011;67396;42.664;23.382;2023-02-01T17:16:47;3.95;;;1.73;;
78148;SDS011;67396;42.664;23.382;2023-02-01T17:19:14;8.88;;;2.10;;
78148;SDS011;67396;42.664;23.382;2023-02-01T17:21:48;3.65;;;1.63;;
78148;SDS011;67396;42.664;23.382;2023-02-01T17:24:18;2.65;;;1.42;;
78148;SDS011;67396;42.664;23.382;2023-02-01T17:26:46;3.45;;;1.95;;
78148;SDS011;67396;42.664;23.382;2023-02-01T17:29:11;3.58;;;1.73;;
78148;SDS011;67396;42.664;23.382;2023-02-01T17:31:39;4.13;;;1.58;;
78148;SDS011;67396;42.664;23.382;2023-02-01T17:34:11;3.42;;;1.83;;
78148;SDS011;67396;42.664;23.382;2023-02-01T17:36:39;3.15;;;2.10;;
78148;SDS011;67396;42.664;23.382;2023-02-01T17:39:05;3.42;;;1.90;;
78148;SDS011;67396;42.664;23.382;2023-02-01T17:41:32;3.92;;;1.77;;
78148;SDS011;67396;42.664;23.382;2023-02-01T17:43:58;3.80;;;1.48;;
78148;SDS011;67396;42.664;23.382;2023-02-01T17:46:24;6.15;;;2.17;;
78148;SDS011;67396;42.664;23.382;2023-02-01T17:48:52;5.47;;;2.15;;
78148;SDS011;67396;42.664;23.382;2023-02-01T17:51:25;6.85;;;2.15;;
78148;SDS011;67396;42.664;23.382;2023-02-01T17:53:53;2.95;;;1.80;;
78148;SDS011;67396;42.664;23.382;2023-02-01T17:56:20;4.57;;;1.90;;
78148;SDS011;67396;42.664;23.382;2023-02-01T17:59:02;3.50;;;1.77;;
78148;SDS011;67396;42.664;23.382;2023-02-01T18:01:35;4.38;;;2.22;;
78148;SDS011;67396;42.664;23.382;2023-02-01T18:10:18;4.38;;;2.30;;
78148;SDS011;67396;42.664;23.382;2023-02-01T18:13:10;5.10;;;1.77;;
78148;SDS011;67396;42.664;23.382;2023-02-01T18:15:54;2.97;;;1.73;;
78148;SDS011;67396;42.664;23.382;2023-02-01T18:18:24;6.65;;;2.08;;
78148;SDS011;67396;42.664;23.382;2023-02-01T18:20:49;4.18;;;1.67;;
78148;SDS011;67396;42.664;23.382;2023-02-01T18:23:17;4.78;;;1.73;;
78148;SDS011;67396;42.664;23.382;2023-02-01T18:25:44;14.95;;;7.18;;
78148;SDS011;67396;42.664;23.382;2023-02-01T18:28:11;18.00;;;9.52;;
78148;SDS011;67396;42.664;23.382;2023-02-01T18:30:39;18.13;;;9.57;;
78148;SDS011;67396;42.664;23.382;2023-02-01T18:33:07;24.13;;;10.82;;
78148;SDS011;67396;42.664;23.382;2023-02-01T18:35:35;19.17;;;9.48;;
78148;SDS011;67396;42.664;23.382;2023-02-01T18:38:00;18.95;;;8.57;;
78148;SDS011;67396;42.664;23.382;2023-02-01T18:40:30;19.60;;;9.13;;
78148;SDS011;67396;42.664;23.382;2023-02-01T18:42:58;18.95;;;9.82;;
78148;SDS011;67396;42.664;23.382;2023-02-01T18:45:40;16.92;;;8.85;;
78148;SDS011;67396;42.664;23.382;2023-02-01T18:48:07;18.23;;;8.18;;
78148;SDS011;67396;42.664;23.382;2023-02-01T18:50:38;14.93;;;8.10;;
78148;SDS011;67396;42.664;23.382;2023-02-01T18:53:07;12.40;;;6.70;;
78148;SDS011;67396;42.664;23.382;2023-02-01T18:55:38;16.10;;;6.68;;
78148;SDS011;67396;42.664;23.382;2023-02-01T18:58:04;12.32;;;6.80;;
78148;SDS011;67396;42.664;23.382;2023-02-01T19:00:33;12.80;;;5.57;;
78148;SDS011;67396;42.664;23.382;2023-02-01T19:02:59;14.65;;;7.00;;
78148;SDS011;67396;42.664;23.382;2023-02-01T19:05:25;10.57;;;5.43;;
78148;SDS011;67396;42.664;23.382;2023-02-01T19:07:51;15.40;;;6.80;;
78148;SDS011;67396;42.664;23.382;2023-02-01T19:10:21;10.93;;;5.97;;
78148;SDS011;67396;42.664;23.382;2023-02-01T19:12:48;13.00;;;7.93;;
78148;SDS011;67396;42.664;23.382;2023-02-01T19:15:14;21.52;;;9.98;;
78148;SDS011;67396;42.664;23.382;2023-02-01T19:17:42;26.48;;;11.30;;
78148;SDS011;67396;42.664;23.382;2023-02-01T19:20:09;25.70;;;12.68;;
78148;SDS011;67396;42.664;23.382;2023-02-01T19:22:40;18.50;;;9.95;;
78148;SDS011;67396;42.664;23.382;2023-02-01T19:25:16;14.60;;;4.85;;
78148;SDS011;67396;42.664;23.382;2023-02-01T19:27:43;17.77;;;8.98;;
78148;SDS011;67396;42.664;23.382;2023-02-01T19:30:09;18.33;;;8.02;;
78148;SDS011;67396;42.664;23.382;2023-02-01T19:32:36;19.52;;;8.27;;
78148;SDS011;67396;42.664;23.382;2023-02-01T19:35:03;12.98;;;7.18;;
78148;SDS011;67396;42.664;23.382;2023-02-01T19:37:29;12.25;;;6.47;;
78148;SDS011;67396;42.664;23.382;2023-02-01T19:39:55;11.10;;;5.50;;
78148;SDS011;67396;42.664;23.382;2023-02-01T19:42:23;13.05;;;5.25;;
78148;SDS011;67396;42.664;23.382;2023-02-01T19:44:49;10.05;;;5.63;;
78148;SDS011;67396;42.664;23.382;2023-02-01T19:47:15;15.55;;;6.47;;
78148;SDS011;67396;42.664;23.382;2023-02-01T19:49:41;12.02;;;5.70;;
78148;SDS011;67396;42.664;23.382;2023-02-01T19:52:06;14.45;;;6.20;;
78148;SDS011;67396;42.664;23.382;2023-02-01T19:54:32;11.43;;;5.68;;
78148;SDS011;67396;42.664;23.382;2023-02-01T19:56:58;10.32;;;5.57;;
78148;SDS011;67396;42.664;23.382;2023-02-01T19:59:23;10.57;;;6.15;;